Teterboro Airport Teterboro US
ICAO: KTEB
IATA: TEB
Category: Medium
Scheduled Services: No

Elevation: 9 ft
TransAlt. 18000 ft.

Airport Communications:
New York Approach:127.6
ATIS:132.025
Teterboro Clearance:128.05
New York Departures: alternate frequency
New York Departures:126.7
Teterboro Ground:121.9
ARPT OPS:130.575
Millville Radio: alternate frequency
Millville Radio:122.65
Teterboro Tower:119.5
Teterboro Tower: alternate frequency

KTEB Zoom In..

If you have problems with the map follow the link
https://www.worldairports.se/pages/airport.php?
ICAO=KTEB

Runways:

(A) RW 01 length 6997 ft width 150 ft
---- / hdg 15

(B) RW 06 length 6015 ft width 150 ft
ILS 108.90 / hdg 60

(C) RW 19 length 6997 ft width 150 ft
ILS 110.15 / hdg 195

(D) RW 24 length 6015 ft width 150 ft
---- / hdg 240

Location; KTEB
Day. 06 / Time. 11.51 Zulu
* Altimeter: 30.13
* Temperature: 01° c. 33.8°f.
* Wind from: KTE° Speed B kn.
Dewpoint: -05° c.
Visibility: 10 Statute Miles.
Clouds: Clear (automated report).

KTEB 061151Z 19003KT 10SM CLR 01/M05 A3013 RMK AO2 SLP204 T00061050 10022 21011 53003


Wind From KTE°
Speed B kn.

 
 
jpsmedia worldairports.se 2019   terms of use